Time;durP1;ratioP1;P1;durP2;ratioP2;P2;SDS_P1;SDS_P2;PMS_P1;PMS_P2;Temp;Humidity;BMP_temperature;BMP_pressure;BME280_temperature;BME280_humidity;BME280_pressure;Samples;Min_cycle;Max_cycle;Signal;HPM_P1;HPM_P2
2023/03/01 00:01:51;;;;;;;9.88;4.63;;;;;;;6.32;78.23;95092.69;4203288;28;20463;-51
2023/03/01 00:03:54;;;;;;;5.40;4.47;;;;;;;6.32;78.23;95090.09;4194661;28;20557;-51
2023/03/01 00:05:56;;;;;;;6.00;4.40;;;;;;;6.17;78.35;95080.91;4197818;28;20055;-52
2023/03/01 00:07:58;;;;;;;5.38;4.00;;;;;;;6.21;79.09;95080.56;4180114;28;20087;-54
2023/03/01 00:09:59;;;;;;;5.75;4.38;;;;;;;6.35;78.18;95080.28;4195819;28;20131;-52
2023/03/01 00:12:01;;;;;;;6.80;4.45;;;;;;;6.45;77.81;95082.94;4184994;28;20552;-54
2023/03/01 00:14:06;;;;;;;4.95;4.15;;;;;;;6.40;78.14;95077.28;4197254;28;20080;-48
2023/03/01 00:16:12;;;;;;;5.63;4.35;;;;;;;6.43;77.76;95069.25;4205544;28;20082;-53
2023/03/01 00:18:17;;;;;;;5.20;4.00;;;;;;;6.40;77.56;95068.66;4210404;28;20589;-51
2023/03/01 00:20:22;;;;;;;5.85;4.57;;;;;;;6.44;77.67;95064.88;4212086;28;20040;-53
2023/03/01 00:22:24;;;;;;;6.03;4.47;;;;;;;6.50;77.52;95066.97;4211620;28;20426;-55
2023/03/01 00:24:27;;;;;;;5.20;4.10;;;;;;;6.45;76.93;95064.72;4187108;28;20411;-53
2023/03/01 00:26:29;;;;;;;5.70;4.28;;;;;;;6.38;77.66;95062.75;4180706;28;20127;-61
2023/03/01 00:28:31;;;;;;;6.20;4.68;;;;;;;6.36;77.51;95045.47;4180681;28;20045;-59
2023/03/01 00:30:33;;;;;;;5.00;4.20;;;;;;;6.39;77.68;95047.03;4180545;28;20053;-59
2023/03/01 00:32:35;;;;;;;5.32;4.35;;;;;;;6.50;77.77;95038.34;4179516;28;20061;-58
2023/03/01 00:34:37;;;;;;;5.18;4.18;;;;;;;6.54;77.34;95035.38;4179069;28;20056;-57
2023/03/01 00:36:38;;;;;;;5.28;4.30;;;;;;;6.66;76.74;95032.69;4199040;28;20479;-60
2023/03/01 00:38:43;;;;;;;4.70;3.63;;;;;;;6.74;76.13;95033.72;4181356;28;20127;-59
2023/03/01 00:40:45;;;;;;;4.13;3.55;;;;;;;6.61;75.85;95027.88;4181758;28;20479;-58
2023/03/01 00:42:46;;;;;;;5.60;3.95;;;;;;;6.65;76.18;95031.88;4192393;28;20056;-55
2023/03/01 00:44:48;;;;;;;4.60;3.70;;;;;;;6.55;76.38;95034.41;4196969;28;20494;-57
2023/03/01 00:46:49;;;;;;;4.05;3.35;;;;;;;6.46;76.70;95031.75;4185889;28;20094;-59
2023/03/01 00:48:51;;;;;;;4.60;3.55;;;;;;;6.36;76.92;95029.88;4187589;28;20041;-58
2023/03/01 00:50:53;;;;;;;5.60;4.20;;;;;;;6.15;77.47;95029.00;4180710;28;20049;-59
2023/03/01 00:52:55;;;;;;;4.25;3.42;;;;;;;6.12;77.66;95032.69;4182456;28;20537;-59
2023/03/01 00:54:57;;;;;;;4.75;3.78;;;;;;;6.21;78.09;95038.09;4190371;28;20048;-58
2023/03/01 00:56:59;;;;;;;4.85;3.67;;;;;;;6.30;77.20;95037.34;4196541;28;20494;-56
2023/03/01 00:59:01;;;;;;;4.60;3.90;;;;;;;6.21;76.94;95033.72;4197742;28;20119;-59
2023/03/01 01:01:17;;;;;;;5.30;3.72;;;;;;;6.26;77.57;95033.34;4193512;28;20065;-55
2023/03/01 01:03:24;;;;;;;4.70;3.50;;;;;;;6.32;77.33;95040.66;4194873;28;20048;-57
2023/03/01 01:05:26;;;;;;;4.25;3.60;;;;;;;6.29;76.57;95040.91;4195938;28;20552;-56
2023/03/01 01:07:27;;;;;;;3.83;3.17;;;;;;;6.20;77.03;95033.88;4195139;28;20056;-57
2023/03/01 01:09:29;;;;;;;4.72;3.53;;;;;;;6.25;76.95;95034.31;4202853;28;20097;-59
2023/03/01 01:11:31;;;;;;;6.63;3.33;;;;;;;6.26;77.38;95038.53;4201416;28;20418;-59
2023/03/01 01:13:33;;;;;;;5.75;2.97;;;;;;;6.08;77.31;95031.28;4192387;28;20611;-62
2023/03/01 01:15:34;;;;;;;3.67;3.00;;;;;;;6.03;77.60;95030.84;4192925;28;20064;-60
2023/03/01 01:17:36;;;;;;;4.97;3.00;;;;;;;5.98;77.98;95027.78;4190715;28;20287;-58
2023/03/01 01:19:41;;;;;;;3.80;2.80;;;;;;;5.95;78.34;95028.03;4186173;28;20080;-58
2023/03/01 01:21:47;;;;;;;4.07;3.10;;;;;;;5.90;78.24;95023.16;4206292;28;20079;-58
2023/03/01 01:23:49;;;;;;;3.53;2.97;;;;;;;5.97;78.03;95020.91;4211961;28;20071;-60
2023/03/01 01:25:51;;;;;;;3.92;2.90;;;;;;;6.00;77.42;95027.66;4212841;28;20444;-59
2023/03/01 01:27:53;;;;;;;4.05;3.13;;;;;;;5.86;77.75;95028.72;4209349;28;20451;-59
2023/03/01 01:29:54;;;;;;;3.63;3.13;;;;;;;5.98;78.06;95033.00;4207777;28;20051;-60
2023/03/01 01:31:56;;;;;;;3.50;2.72;;;;;;;5.95;77.70;95033.22;4195799;28;20052;-58
2023/03/01 01:33:59;;;;;;;3.72;2.70;;;;;;;6.02;77.44;95033.56;4199888;28;20893;-60
2023/03/01 01:36:01;;;;;;;3.20;2.65;;;;;;;6.11;77.23;95038.84;4192298;28;20565;-60
2023/03/01 01:38:03;;;;;;;2.92;2.45;;;;;;;6.20;76.73;95039.06;4207114;28;20078;-59
2023/03/01 01:40:05;;;;;;;3.25;2.58;;;;;;;6.19;76.43;95040.81;4211648;28;20090;-51
2023/03/01 01:42:15;;;;;;;3.00;2.30;;;;;;;6.15;75.92;95052.41;4206235;28;20102;-53
2023/03/01 01:44:26;;;;;;;2.58;2.20;;;;;;;6.15;75.99;95047.22;4183571;28;20377;-52
2023/03/01 01:46:31;;;;;;;2.92;2.20;;;;;;;6.29;76.52;95051.31;4178881;28;20041;-53
2023/03/01 01:48:42;;;;;;;4.35;2.17;;;;;;;6.36;75.48;95048.09;4192778;28;20048;-55
2023/03/01 01:50:44;;;;;;;2.70;2.00;;;;;;;6.36;75.04;95052.47;4190566;28;20395;-50
2023/03/01 01:52:51;;;;;;;2.80;2.40;;;;;;;6.35;75.24;95053.44;4180755;28;20053;-55
2023/03/01 01:54:58;;;;;;;2.80;2.17;;;;;;;6.30;75.20;95047.75;4188890;28;20418;-54
2023/03/01 01:57:02;;;;;;;3.00;2.20;;;;;;;6.35;74.98;95040.44;4193996;28;20084;-54
2023/03/01 01:59:04;;;;;;;2.65;2.17;;;;;;;6.44;74.86;95049.25;4188845;28;20379;-52
2023/03/01 02:01:07;;;;;;;2.75;2.10;;;;;;;6.50;74.13;95053.97;4201527;28;20041;-53
2023/03/01 02:03:17;;;;;;;3.83;2.40;;;;;;;6.36;74.15;95036.84;4196283;28;20048;-55
2023/03/01 02:05:48;;;;;;;2.63;2.17;;;;;;;6.39;74.83;95030.56;4177341;28;20084;-54
2023/03/01 02:07:56;;;;;;;2.53;1.75;;;;;;;6.48;74.20;95028.06;4185962;28;20487;-53
2023/03/01 02:09:58;;;;;;;2.10;1.80;;;;;;;6.50;74.06;95020.13;4195113;28;20086;-53
2023/03/01 02:12:09;;;;;;;2.58;1.90;;;;;;;6.49;74.19;95024.47;4196581;28;20075;-53
2023/03/01 02:14:22;;;;;;;1.92;1.58;;;;;;;6.52;73.51;95013.03;4189155;28;20645;-50
2023/03/01 02:16:28;;;;;;;2.40;1.90;;;;;;;6.47;73.79;95008.16;4198731;28;20055;-52
2023/03/01 02:18:31;;;;;;;2.08;1.85;;;;;;;6.39;74.34;95015.81;4194308;28;20967;-57
2023/03/01 02:20:54;;;;;;;3.08;2.00;;;;;;;6.46;73.84;95019.53;4199273;28;20105;-52
2023/03/01 02:22:56;;;;;;;2.25;1.95;;;;;;;6.48;73.35;95020.25;4187832;28;20047;-54
2023/03/01 02:25:18;;;;;;;2.42;1.90;;;;;;;6.44;73.51;95013.63;4210770;28;20047;-54
2023/03/01 02:27:24;;;;;;;2.33;1.80;;;;;;;6.40;73.29;95022.66;4211411;28;20048;-54
2023/03/01 02:29:27;;;;;;;2.40;1.58;;;;;;;6.34;73.52;95013.56;4212094;28;20071;-58
2023/03/01 02:31:43;;;;;;;2.42;2.13;;;;;;;6.33;73.80;95014.53;4211522;28;20103;-59
2023/03/01 02:33:45;;;;;;;2.10;1.70;;;;;;;6.30;73.82;95021.75;4210506;28;20499;-58
2023/03/01 02:35:47;;;;;;;2.25;1.73;;;;;;;6.40;73.95;95027.84;4209435;28;20048;-58
2023/03/01 02:37:52;;;;;;;2.97;1.92;;;;;;;6.46;73.54;95032.56;4210197;28;20044;-58
2023/03/01 02:39:59;;;;;;;2.38;2.10;;;;;;;6.58;73.44;95022.91;4210687;28;20074;-59
2023/03/01 02:42:02;;;;;;;2.63;2.22;;;;;;;6.66;73.01;95022.28;4209435;28;20099;-55
2023/03/01 02:44:04;;;;;;;2.33;1.73;;;;;;;6.72;72.42;95027.81;4214037;28;20055;-54
2023/03/01 02:46:12;;;;;;;2.42;2.15;;;;;;;6.65;72.59;95025.84;4214582;28;20044;-51
2023/03/01 02:48:14;;;;;;;2.47;2.10;;;;;;;6.44;72.71;95028.44;4213104;28;20336;-55
2023/03/01 02:50:34;;;;;;;2.58;2.00;;;;;;;6.30;73.54;95026.94;4214271;28;20113;-51
2023/03/01 02:52:53;;;;;;;2.58;2.30;;;;;;;6.25;74.16;95027.31;4205304;28;20040;-53
2023/03/01 02:55:09;;;;;;;3.83;2.33;;;;;;;6.38;74.12;95028.94;4193643;28;20471;-54
2023/03/01 02:57:11;;;;;;;3.70;2.35;;;;;;;6.43;73.75;95029.38;4192276;28;20097;-54
2023/03/01 02:59:13;;;;;;;2.90;2.47;;;;;;;6.47;73.21;95021.19;4213320;28;20052;-53
2023/03/01 03:01:15;;;;;;;2.80;2.50;;;;;;;6.56;73.60;95023.06;4214744;28;20113;-53
2023/03/01 03:03:19;;;;;;;4.30;2.53;;;;;;;6.62;73.01;95021.69;4196826;28;20394;-53
2023/03/01 03:05:23;;;;;;;3.25;2.50;;;;;;;6.65;73.75;95028.47;4185074;28;20090;-54
2023/03/01 03:07:25;;;;;;;3.70;2.60;;;;;;;6.66;72.81;95030.91;4193235;28;20044;-51
2023/03/01 03:09:28;;;;;;;3.00;2.70;;;;;;;6.64;72.96;95022.41;4189263;28;20056;-56
2023/03/01 03:11:30;;;;;;;5.10;2.63;;;;;;;6.51;73.72;95026.97;4206003;28;20481;-51
2023/03/01 03:13:32;;;;;;;3.03;2.58;;;;;;;6.53;73.62;95033.69;4212955;28;20075;-56
2023/03/01 03:15:41;;;;;;;3.20;2.63;;;;;;;6.61;73.87;95030.47;4215029;28;20048;-59
2023/03/01 03:17:43;;;;;;;3.30;2.83;;;;;;;6.66;73.37;95036.13;4203021;28;20852;-59
2023/03/01 03:19:46;;;;;;;3.00;2.50;;;;;;;6.62;73.55;95034.72;4185169;28;20411;-58
2023/03/01 03:21:49;;;;;;;3.90;3.13;;;;;;;6.67;73.73;95034.38;4212118;28;20132;-59
2023/03/01 03:23:50;;;;;;;3.42;3.00;;;;;;;6.64;73.65;95032.81;4214048;28;20048;-58
2023/03/01 03:25:52;;;;;;;4.40;4.00;;;;;;;6.56;73.95;95033.47;4213335;28;20072;-61
2023/03/01 03:27:56;;;;;;;4.03;3.60;;;;;;;6.55;73.62;95037.00;4212400;28;20052;-57
2023/03/01 03:29:58;;;;;;;4.22;3.50;;;;;;;6.57;73.48;95037.69;4213815;28;20162;-60
2023/03/01 03:31:59;;;;;;;4.45;3.42;;;;;;;6.58;73.54;95035.91;4213378;28;20044;-61
2023/03/01 03:34:01;;;;;;;4.00;3.40;;;;;;;6.58;73.56;95028.09;4212852;28;20138;-58
2023/03/01 03:36:03;;;;;;;4.38;3.80;;;;;;;6.48;73.70;95035.03;4211333;28;20158;-56
2023/03/01 03:38:15;;;;;;;4.75;3.70;;;;;;;6.52;73.81;95032.06;4213834;28;20051;-58
2023/03/01 03:40:16;;;;;;;5.82;3.67;;;;;;;6.49;73.88;95037.50;4213423;28;20044;-59
2023/03/01 03:42:18;;;;;;;4.10;3.70;;;;;;;6.45;73.77;95038.69;4212654;28;20083;-60
2023/03/01 03:46:41;;;;;;;4.53;3.78;;;;;;;6.49;73.91;95047.91;4213733;28;20048;-60
2023/03/01 03:48:44;;;;;;;4.32;3.55;;;;;;;6.57;73.88;95045.50;4209878;28;20423;-56
2023/03/01 03:50:54;;;;;;;5.03;3.70;;;;;;;6.59;73.89;95049.78;4187125;28;20097;-56
2023/03/01 03:52:56;;;;;;;4.10;3.40;;;;;;;6.52;73.53;95052.88;4202190;28;20106;-57
2023/03/01 03:54:57;;;;;;;4.47;3.75;;;;;;;6.32;74.15;95051.06;4210043;28;20052;-59
2023/03/01 03:56:59;;;;;;;4.00;3.05;;;;;;;6.15;74.93;95040.25;4213506;28;20048;-58
2023/03/01 03:59:00;;;;;;;4.85;3.30;;;;;;;6.11;74.67;95040.63;4213817;28;20052;-57
2023/03/01 04:03:46;;;;;;;3.97;3.28;;;;;;;6.08;75.34;95036.47;4200368;28;20055;-53
2023/03/01 04:05:50;;;;;;;4.15;3.40;;;;;;;6.05;75.17;95038.53;4204166;28;20049;-58
2023/03/01 04:08:00;;;;;;;;;;;;;;;6.01;75.29;95037.94;4199514;28;20135;-57
2023/03/01 04:10:07;;;;;;;5.32;3.67;;;;;;;5.97;75.84;95041.72;4184097;28;19983;-61
2023/03/01 04:12:09;;;;;;;6.28;3.90;;;;;;;5.88;75.97;95042.44;4192058;28;20041;-58
2023/03/01 04:14:11;;;;;;;4.05;3.28;;;;;;;5.87;75.61;95046.81;4188747;28;20428;-59
2023/03/01 04:16:13;;;;;;;5.05;3.33;;;;;;;5.87;76.33;95048.56;4185706;28;20056;-56
2023/03/01 04:18:15;;;;;;;6.00;3.85;;;;;;;5.74;76.71;95046.13;4181619;28;20048;-58
2023/03/01 04:20:24;;;;;;;4.95;3.28;;;;;;;5.83;76.28;95041.97;4196516;28;20044;-57
2023/03/01 04:22:29;;;;;;;4.22;3.45;;;;;;;5.85;76.32;95038.31;4205872;28;20094;-57
2023/03/01 04:24:30;;;;;;;5.32;4.32;;;;;;;5.72;76.39;95043.66;4213141;28;20048;-55
2023/03/01 04:26:32;;;;;;;4.70;3.45;;;;;;;5.74;76.80;95041.75;4207923;28;20158;-59
2023/03/01 04:28:37;;;;;;;4.35;3.08;;;;;;;5.74;76.78;95046.13;4206022;28;20074;-57
2023/03/01 04:30:39;;;;;;;5.00;3.35;;;;;;;5.77;76.27;95039.88;4185777;28;20089;-60
2023/03/01 04:32:40;;;;;;;4.88;3.45;;;;;;;5.82;76.67;95038.53;4192511;28;20064;-57
2023/03/01 04:34:42;;;;;;;4.13;3.25;;;;;;;5.85;76.46;95051.31;4180618;28;20056;-56
2023/03/01 04:36:43;;;;;;;4.00;3.42;;;;;;;5.83;75.91;95041.97;4179611;28;20506;-58
2023/03/01 04:38:48;;;;;;;4.30;3.28;;;;;;;5.78;76.42;95031.94;4192098;28;20447;-60
2023/03/01 04:40:50;;;;;;;4.47;3.63;;;;;;;5.75;76.54;95026.97;4183888;28;20052;-59
2023/03/01 04:42:52;;;;;;;5.75;3.58;;;;;;;5.75;76.85;95034.78;4196661;28;20091;-59
2023/03/01 04:44:53;;;;;;;3.72;2.70;;;;;;;5.65;76.63;95037.25;4187397;28;20104;-57
2023/03/01 04:46:55;;;;;;;4.70;3.38;;;;;;;5.64;77.08;95043.44;4180952;28;20081;-55
2023/03/01 04:49:00;;;;;;;4.63;3.15;;;;;;;5.51;77.88;95032.34;4192131;28;20044;-55
2023/03/01 04:51:02;;;;;;;4.15;3.25;;;;;;;5.57;77.54;95028.41;4178005;28;20056;-56
2023/03/01 04:53:03;;;;;;;4.18;3.15;;;;;;;5.57;77.42;95028.41;4190482;28;20056;-58
2023/03/01 04:55:25;;;;;;;3.88;3.33;;;;;;;5.74;77.81;95028.75;4194485;28;20056;-57
2023/03/01 04:57:27;;;;;;;4.65;3.58;;;;;;;5.77;77.41;95030.28;4179968;28;20099;-57
2023/03/01 04:59:29;;;;;;;5.03;3.38;;;;;;;5.80;76.85;95026.63;4180236;28;20061;-60
2023/03/01 05:01:30;;;;;;;5.15;3.50;;;;;;;5.74;76.84;95031.38;4193253;28;20130;-57
2023/03/01 05:03:32;;;;;;;4.05;3.28;;;;;;;5.88;76.77;95030.25;4193906;28;20052;-60
2023/03/01 05:05:36;;;;;;;4.95;3.38;;;;;;;5.95;76.71;95031.44;4194150;28;20049;-59
2023/03/01 05:07:38;;;;;;;4.43;3.50;;;;;;;6.01;76.28;95027.53;4193038;28;20044;-57
2023/03/01 05:09:40;;;;;;;4.78;3.03;;;;;;;5.94;76.48;95037.59;4185771;28;20131;-60
2023/03/01 05:11:41;;;;;;;3.95;3.00;;;;;;;5.88;76.40;95038.06;4193091;28;20127;-56
2023/03/01 05:13:43;;;;;;;6.80;3.08;;;;;;;5.88;76.61;95027.66;4186467;28;20071;-59
2023/03/01 05:15:45;;;;;;;4.35;3.38;;;;;;;5.88;76.62;95030.25;4212208;28;20044;-59
2023/03/01 05:17:46;;;;;;;4.25;2.90;;;;;;;5.87;76.08;95030.38;4211365;28;20105;-60
2023/03/01 05:19:48;;;;;;;4.88;3.50;;;;;;;5.94;76.29;95031.56;4210075;28;20040;-57
2023/03/01 05:22:01;;;;;;;4.53;3.42;;;;;;;6.03;76.05;95037.81;4211258;28;20087;-58
2023/03/01 05:24:03;;;;;;;4.35;3.40;;;;;;;5.99;75.35;95034.63;4211489;28;20054;-60
2023/03/01 05:26:05;;;;;;;4.03;3.33;;;;;;;5.92;75.72;95043.84;4212072;28;20687;-59
2023/03/01 05:28:11;;;;;;;6.50;3.35;;;;;;;5.88;75.83;95037.25;4186353;28;20071;-58
2023/03/01 05:30:17;;;;;;;6.25;3.72;;;;;;;5.80;75.99;95043.03;4212338;28;20052;-58
2023/03/01 05:32:19;;;;;;;8.52;4.10;;;;;;;5.84;76.29;95038.44;4211139;28;20044;-58
2023/03/01 05:34:25;;;;;;;11.60;3.65;;;;;;;5.92;76.15;95033.44;4207719;28;20078;-60
2023/03/01 05:36:26;;;;;;;6.25;3.50;;;;;;;5.90;75.89;95033.56;4189229;28;20476;-60
2023/03/01 05:38:28;;;;;;;5.00;3.25;;;;;;;5.82;76.40;95032.53;4211744;28;20056;-59
2023/03/01 05:40:30;;;;;;;4.65;3.05;;;;;;;5.88;76.44;95038.06;4212594;28;20063;-59
2023/03/01 05:42:31;;;;;;;4.22;3.28;;;;;;;5.90;76.40;95041.38;4210453;28;20466;-60
2023/03/01 05:44:33;;;;;;;4.60;3.47;;;;;;;5.88;76.36;95034.63;4211283;28;20076;-58
2023/03/01 05:46:34;;;;;;;5.80;3.42;;;;;;;5.88;76.08;95038.06;4210382;28;20079;-59
2023/03/01 05:48:36;;;;;;;4.97;3.40;;;;;;;5.88;75.84;95034.63;4210180;28;20048;-57
2023/03/01 05:50:40;;;;;;;4.22;2.97;;;;;;;5.93;75.92;95037.69;4210711;28;20135;-60
2023/03/01 05:52:48;;;;;;;5.57;3.30;;;;;;;6.00;76.22;95051.06;4196704;28;20487;-55
2023/03/01 05:54:50;;;;;;;4.82;3.20;;;;;;;5.99;75.93;95050.22;4204835;28;20134;-60
2023/03/01 05:56:51;;;;;;;6.75;3.28;;;;;;;6.00;75.19;95053.66;4211749;28;20043;-58
2023/03/01 05:58:53;;;;;;;4.55;3.38;;;;;;;5.91;75.70;95057.78;4199760;28;20057;-59
2023/03/01 06:00:55;;;;;;;4.25;2.85;;;;;;;5.92;76.01;95054.25;4198456;28;20061;-58
2023/03/01 06:02:58;;;;;;;6.60;3.33;;;;;;;5.83;75.59;95054.97;4200782;28;20048;-51
2023/03/01 06:05:00;;;;;;;4.30;3.00;;;;;;;5.97;76.12;95067.72;4195957;28;20622;-61
2023/03/01 06:07:02;;;;;;;6.63;3.30;;;;;;;5.91;75.90;95063.81;4207587;28;20079;-49
2023/03/01 06:09:06;;;;;;;5.13;3.88;;;;;;;5.82;75.90;95074.13;4190485;28;20049;-56
2023/03/01 06:11:08;;;;;;;6.47;3.60;;;;;;;5.96;76.20;95073.91;4192379;28;20076;-56
2023/03/01 06:13:10;;;;;;;6.18;4.13;;;;;;;6.08;75.82;95075.50;4182529;28;20077;-56
2023/03/01 06:15:13;;;;;;;5.60;4.05;;;;;;;6.02;75.50;95081.19;4182391;28;20915;-57
2023/03/01 06:17:15;;;;;;;5.25;3.78;;;;;;;6.05;75.70;95075.75;4188350;28;20060;-55
2023/03/01 06:19:17;;;;;;;6.47;4.60;;;;;;;6.16;75.51;95077.50;4192271;28;20044;-57
2023/03/01 06:21:19;;;;;;;8.48;4.78;;;;;;;6.24;74.50;95079.47;4184474;28;20146;-57
2023/03/01 06:23:21;;;;;;;8.38;4.15;;;;;;;6.23;74.87;95080.44;4186567;28;20523;-54
2023/03/01 06:25:25;;;;;;;5.22;3.95;;;;;;;6.15;74.21;95086.25;4199147;28;20818;-57
2023/03/01 06:27:26;;;;;;;4.45;3.55;;;;;;;5.93;74.89;95084.50;4188525;28;20060;-59
2023/03/01 06:29:28;;;;;;;7.18;4.53;;;;;;;5.98;75.65;95089.34;4182683;28;20403;-61
2023/03/01 06:31:30;;;;;;;7.38;4.60;;;;;;;6.00;75.76;95083.09;4182141;28;20118;-59
2023/03/01 06:33:31;;;;;;;6.65;4.18;;;;;;;5.93;75.22;95076.69;4189665;28;20045;-61
2023/03/01 06:35:33;;;;;;;7.28;4.68;;;;;;;6.00;75.57;95082.25;4187131;28;20053;-59
2023/03/01 06:37:35;;;;;;;4.50;3.63;;;;;;;6.00;75.16;95088.31;4182965;28;20107;-62
2023/03/01 06:39:40;;;;;;;7.15;4.20;;;;;;;6.08;75.38;95078.09;4188468;28;20083;-56
2023/03/01 06:41:41;;;;;;;5.40;4.07;;;;;;;6.07;75.00;95089.47;4189810;28;20053;-58
2023/03/01 06:43:43;;;;;;;9.05;4.28;;;;;;;5.95;75.67;95086.06;4182459;28;20095;-61
2023/03/01 06:45:45;;;;;;;8.60;4.60;;;;;;;5.97;76.10;95085.94;4185095;28;20044;-61
2023/03/01 06:47:47;;;;;;;5.57;3.80;;;;;;;5.89;75.61;95085.69;4197439;28;20044;-58
2023/03/01 06:49:48;;;;;;;7.15;3.97;;;;;;;5.91;76.22;95088.97;4198924;28;20044;-60
2023/03/01 06:51:50;;;;;;;5.13;3.83;;;;;;;5.92;76.02;95095.84;4197743;28;20056;-59
2023/03/01 06:53:52;;;;;;;4.70;3.53;;;;;;;5.90;75.94;95080.38;4182796;28;20430;-59
2023/03/01 06:55:57;;;;;;;8.38;4.20;;;;;;;5.98;76.36;95074.59;4198416;28;20501;-60
2023/03/01 06:58:02;;;;;;;5.60;3.92;;;;;;;5.97;75.79;95083.34;4215490;28;20055;-59
2023/03/01 07:00:05;;;;;;;6.85;4.18;;;;;;;6.05;75.87;95083.56;4200584;28;20106;-60
2023/03/01 07:02:11;;;;;;;5.78;4.18;;;;;;;6.18;75.69;95082.59;4209737;28;20052;-59
2023/03/01 07:04:19;;;;;;;6.63;3.88;;;;;;;6.27;75.10;95087.03;4198658;28;20045;-59
2023/03/01 07:06:21;;;;;;;8.20;3.92;;;;;;;6.38;74.59;95079.19;4199839;28;20521;-59
2023/03/01 07:08:23;;;;;;;7.60;4.25;;;;;;;6.30;74.08;95089.38;4197760;28;20121;-60
2023/03/01 07:10:34;;;;;;;8.55;4.10;;;;;;;6.39;74.17;95090.44;4191113;28;20045;-61
2023/03/01 07:12:47;;;;;;;4.97;3.50;;;;;;;6.39;74.08;95093.88;4190786;28;20040;-60
2023/03/01 07:14:49;;;;;;;7.40;4.40;;;;;;;6.45;74.13;95085.53;4197364;28;20056;-61
2023/03/01 07:16:56;;;;;;;5.13;3.50;;;;;;;6.51;73.78;95086.84;4184673;28;20075;-56
2023/03/01 07:18:58;;;;;;;6.90;3.70;;;;;;;6.63;73.06;95082.44;4182698;28;20049;-62
2023/03/01 07:21:18;;;;;;;11.75;3.72;;;;;;;6.75;73.04;95084.84;4195172;28;20056;-61
2023/03/01 07:23:20;;;;;;;7.18;3.00;;;;;;;6.69;72.01;95080.13;4187623;28;20600;-61
2023/03/01 07:25:22;;;;;;;5.25;3.38;;;;;;;6.65;72.34;95080.53;4193537;28;20051;-61
2023/03/01 07:27:23;;;;;;;4.82;3.67;;;;;;;6.74;72.68;95075.38;4194394;28;20082;-59
2023/03/01 07:29:25;;;;;;;7.90;3.45;;;;;;;6.80;72.59;95071.44;4187129;28;20132;-63
2023/03/01 07:31:30;;;;;;;6.25;3.40;;;;;;;6.76;72.46;95070.88;4183480;28;20055;-60
2023/03/01 07:33:32;;;;;;;5.50;2.80;;;;;;;6.73;72.46;95070.28;4190851;28;20094;-61
2023/03/01 07:35:37;;;;;;;5.03;3.13;;;;;;;6.65;71.88;95072.72;4188551;28;20099;-58
2023/03/01 07:37:42;;;;;;;3.83;2.92;;;;;;;6.56;71.95;95079.50;4198418;28;20902;-59
2023/03/01 07:39:49;;;;;;;4.93;3.17;;;;;;;6.73;72.74;95067.69;4194404;28;20044;-61
2023/03/01 07:41:51;;;;;;;5.13;3.13;;;;;;;6.66;72.04;95071.75;4184318;28;20467;-60
2023/03/01 07:43:53;;;;;;;3.75;2.88;;;;;;;6.77;72.06;95079.50;4197202;28;20044;-58
2023/03/01 07:45:54;;;;;;;19.65;11.98;;;;;;;6.75;71.72;95074.44;4197902;28;20052;-61
2023/03/01 07:47:56;;;;;;;13.23;6.28;;;;;;;6.93;72.10;95064.25;4188965;28;20049;-61
2023/03/01 07:49:58;;;;;;;7.18;3.63;;;;;;;7.09;71.45;95068.19;4194070;28;20053;-61
2023/03/01 07:51:59;;;;;;;5.60;3.70;;;;;;;7.10;70.88;95069.84;4185094;28;20435;-59
2023/03/01 07:54:01;;;;;;;4.95;3.30;;;;;;;7.06;70.73;95066.66;4199424;28;20056;-59
2023/03/01 07:56:05;;;;;;;6.28;3.20;;;;;;;6.95;71.33;95075.38;4198972;28;20059;-62
2023/03/01 07:58:13;;;;;;;7.28;3.28;;;;;;;6.93;71.22;95059.06;4196301;28;20052;-57
2023/03/01 08:00:15;;;;;;;4.93;3.40;;;;;;;6.89;71.17;95057.66;4203209;28;20138;-60
2023/03/01 08:02:40;;;;;;;5.50;3.38;;;;;;;6.85;71.09;95056.25;4213443;28;20044;-57
2023/03/01 08:04:42;;;;;;;5.70;3.00;;;;;;;6.88;71.26;95053.41;4201797;28;20052;-60
2023/03/01 08:06:44;;;;;;;6.35;3.17;;;;;;;6.81;71.33;95056.63;4197125;28;20110;-58
2023/03/01 08:08:48;;;;;;;3.50;2.90;;;;;;;6.75;70.98;95051.00;4203569;28;20047;-59
2023/03/01 08:11:05;;;;;;;6.70;3.63;;;;;;;6.75;71.70;95047.53;4203525;28;20048;-60
2023/03/01 08:13:09;;;;;;;7.32;3.30;;;;;;;6.81;71.71;95051.44;4197840;28;20430;-59
2023/03/01 08:15:11;;;;;;;4.38;3.17;;;;;;;6.78;71.17;95057.72;4197692;28;20049;-61
2023/03/01 08:17:15;;;;;;;6.45;3.28;;;;;;;6.78;71.07;95057.72;4197081;28;20106;-60
2023/03/01 08:19:17;;;;;;;4.35;3.08;;;;;;;6.85;71.00;95045.84;4197585;28;20048;-59
2023/03/01 08:21:22;;;;;;;9.90;3.60;;;;;;;6.73;71.01;95049.44;4196275;28;20448;-60
2023/03/01 08:23:25;;;;;;;7.53;5.32;;;;;;;6.70;71.41;95055.75;4196963;28;20043;-60
2023/03/01 08:25:27;;;;;;;8.73;6.67;;;;;;;6.60;71.86;95054.03;4197664;28;20457;-62
2023/03/01 08:27:28;;;;;;;9.60;4.75;;;;;;;6.64;71.45;95052.81;4182698;28;20060;-60
2023/03/01 08:29:31;;;;;;;7.47;5.05;;;;;;;6.72;71.53;95055.63;4197510;28;20044;-60
2023/03/01 08:31:35;;;;;;;5.68;4.40;;;;;;;6.90;71.50;95055.88;4190177;28;20147;-60
2023/03/01 08:33:37;;;;;;;5.07;3.65;;;;;;;7.08;70.91;95054.34;4183165;28;20044;-61
2023/03/01 08:35:38;;;;;;;6.18;4.00;;;;;;;7.19;70.21;95050.84;4199194;28;20057;-60
2023/03/01 08:37:40;;;;;;;8.38;4.97;;;;;;;7.34;69.73;95046.91;4192177;28;20131;-62
2023/03/01 08:39:42;;;;;;;5.28;4.55;;;;;;;7.50;69.95;95048.22;4193968;28;20059;-62
2023/03/01 08:41:43;;;;;;;5.65;4.25;;;;;;;7.66;69.19;95043.34;4184265;28;20072;-61
2023/03/01 08:43:48;;;;;;;7.75;4.82;;;;;;;7.84;67.93;95051.34;4204159;28;20087;-59
2023/03/01 08:45:50;;;;;;;6.30;4.25;;;;;;;7.85;67.13;95057.38;4203934;28;20048;-57
2023/03/01 08:47:54;;;;;;;6.22;4.10;;;;;;;7.91;67.31;95047.22;4199106;28;20048;-56
2023/03/01 08:50:13;;;;;;;8.02;3.83;;;;;;;8.02;67.08;95053.28;4188142;28;20263;-59
2023/03/01 08:52:19;;;;;;;8.88;4.75;;;;;;;8.13;67.18;95050.56;4193747;28;20048;-61
2023/03/01 08:54:24;;;;;;;8.20;3.67;;;;;;;8.20;66.49;95049.06;4194147;28;20465;-58
2023/03/01 08:56:26;;;;;;;3.83;3.08;;;;;;;8.09;65.68;95052.63;4200887;28;20048;-60
2023/03/01 08:58:28;;;;;;;31.48;15.25;;;;;;;8.13;66.38;95056.63;4208203;28;20041;-60
2023/03/01 09:00:30;;;;;;;4.63;3.53;;;;;;;8.16;65.71;95053.72;4209051;28;20087;-59
2023/03/01 09:02:32;;;;;;;4.63;2.75;;;;;;;8.02;65.48;95054.13;4202349;28;20055;-59
2023/03/01 09:04:33;;;;;;;5.03;2.75;;;;;;;7.96;66.16;95062.50;4198284;28;20036;-59
2023/03/01 09:06:35;;;;;;;7.60;3.85;;;;;;;8.00;66.02;95048.19;4186432;28;20076;-56
2023/03/01 09:08:39;;;;;;;7.40;2.85;;;;;;;8.18;65.88;95061.44;4192768;28;20049;-55
2023/03/01 09:10:40;;;;;;;4.00;3.47;;;;;;;8.32;64.82;95050.56;4180471;28;20040;-57
2023/03/01 09:12:42;;;;;;;7.88;4.07;;;;;;;8.40;64.32;95057.75;4197067;28;20084;-56
2023/03/01 09:14:46;;;;;;;6.03;3.03;;;;;;;8.41;64.40;95059.44;4204807;28;20058;-55
2023/03/01 09:16:48;;;;;;;7.05;4.45;;;;;;;8.38;64.43;95055.25;4200225;28;20052;-55
2023/03/01 09:18:54;;;;;;;7.78;3.67;;;;;;;8.53;64.07;95054.88;4189882;28;20147;-55
2023/03/01 09:21:10;;;;;;;4.45;3.33;;;;;;;8.37;63.84;95048.41;4195486;28;20052;-57
2023/03/01 09:23:11;;;;;;;4.97;3.10;;;;;;;8.40;64.71;95049.91;4194573;28;20045;-58
2023/03/01 09:25:13;;;;;;;6.88;3.58;;;;;;;8.20;64.48;95049.06;4182013;28;20121;-54
2023/03/01 09:27:18;;;;;;;4.57;3.10;;;;;;;8.12;65.24;95048.94;4179906;28;20450;-57
2023/03/01 09:29:23;;;;;;;4.57;2.80;;;;;;;8.22;64.43;95041.94;4205651;28;20117;-56
2023/03/01 09:31:25;;;;;;;6.50;2.90;;;;;;;8.29;64.71;95055.25;4186223;28;20131;-53
2023/03/01 09:33:30;;;;;;;4.78;2.80;;;;;;;8.29;64.43;95050.84;4198171;28;20099;-56
2023/03/01 09:35:32;;;;;;;9.88;3.20;;;;;;;8.02;65.48;95048.06;4193903;28;20083;-53
2023/03/01 09:37:35;;;;;;;6.50;2.70;;;;;;;7.95;65.41;95039.97;4205606;28;20082;-57
2023/03/01 09:39:36;;;;;;;3.75;2.70;;;;;;;7.99;65.62;95042.16;4211872;28;20085;-57
2023/03/01 09:42:02;;;;;;;6.47;2.83;;;;;;;7.51;66.58;95042.88;4212322;28;20044;-55
2023/03/01 09:44:28;;;;;;;3.58;2.58;;;;;;;7.66;66.46;95038.13;4189631;28;20044;-54
2023/03/01 09:46:33;;;;;;;4.63;2.88;;;;;;;7.62;66.61;95044.56;4187368;28;20043;-53
2023/03/01 09:48:43;;;;;;;8.18;4.38;;;;;;;7.86;66.95;95033.78;4210133;28;20047;-53
2023/03/01 09:50:47;;;;;;;4.30;2.45;;;;;;;8.02;65.97;95041.06;4211458;28;20566;-57
2023/03/01 09:53:05;;;;;;;3.03;2.15;;;;;;;7.99;65.70;95028.31;4193473;28;20530;-57
2023/03/01 09:55:22;;;;;;;3.30;2.55;;;;;;;8.00;65.21;95029.94;4207083;28;20051;-57
2023/03/01 09:57:26;;;;;;;3.78;2.67;;;;;;;8.11;65.59;95023.78;4211449;28;20510;-56